Time;durP1;ratioP1;P1;durP2;ratioP2;P2;SDS_P1;SDS_P2;PMS_P1;PMS_P2;Temp;Humidity;BMP_temperature;BMP_pressure;BME280_temperature;BME280_humidity;BME280_pressure;Samples;Min_cycle;Max_cycle;Signal;HPM_P1;HPM_P2
2022/06/09 00:01:45;;;;;;;9.70;8.57;;;;;;;17.71;100.00;62694.25;5092127;28;20196;-74
2022/06/09 00:04:16;;;;;;;11.17;8.87;;;;;;;17.70;100.00;62687.47;5090976;28;20200;-75
2022/06/09 00:06:47;;;;;;;10.57;8.07;;;;;;;17.76;100.00;62698.56;5091853;28;20755;-75
2022/06/09 00:09:18;;;;;;;11.87;8.37;;;;;;;17.66;100.00;62688.84;5092391;28;20202;-74
2022/06/09 00:11:49;;;;;;;9.27;8.10;;;;;;;17.69;100.00;62692.09;5092113;28;20203;-74
2022/06/09 00:14:17;;;;;;;9.63;8.07;;;;;;;17.60;100.00;62679.25;5092106;28;20249;-75
2022/06/09 00:16:45;;;;;;;12.00;7.73;;;;;;;17.71;100.00;62694.25;5091827;28;20235;-76
2022/06/09 00:19:12;;;;;;;11.40;8.17;;;;;;;17.84;100.00;62707.19;5091685;28;20203;-75
2022/06/09 00:21:40;;;;;;;9.07;6.57;;;;;;;17.89;100.00;62715.16;5091829;28;20601;-75
2022/06/09 00:24:08;;;;;;;7.83;7.03;;;;;;;17.93;100.00;62716.91;5091633;28;20206;-75
2022/06/09 00:26:35;;;;;;;9.97;7.63;;;;;;;17.70;100.00;62693.16;5091829;28;20208;-74
2022/06/09 00:29:05;;;;;;;10.10;8.13;;;;;;;17.76;100.00;62699.09;5091532;28;20660;-74
2022/06/09 00:31:32;;;;;;;10.67;7.73;;;;;;;17.65;100.00;62687.22;5091297;28;20214;-74
2022/06/09 00:33:59;;;;;;;9.80;8.20;;;;;;;17.43;100.00;62666.06;5091699;28;20203;-75
2022/06/09 00:36:26;;;;;;;9.77;8.40;;;;;;;17.83;100.00;62708.69;5092165;28;20247;-75
2022/06/09 00:38:54;;;;;;;10.57;8.47;;;;;;;18.00;100.00;62725.00;5091356;28;20199;-75
2022/06/09 00:41:21;;;;;;;10.57;8.27;;;;;;;17.86;100.00;62711.91;5093249;28;20320;-76
2022/06/09 00:43:47;;;;;;;10.57;8.13;;;;;;;17.83;100.00;62706.13;5098233;28;20305;-74
2022/06/09 00:46:20;;;;;;;8.70;7.63;;;;;;;17.96;100.00;62720.13;5084071;28;20596;-76
2022/06/09 00:48:50;;;;;;;10.43;8.17;;;;;;;17.87;100.00;62710.44;5096061;28;20195;-75
2022/06/09 00:51:30;;;;;;;10.80;9.00;;;;;;;17.90;100.00;62716.25;5098206;28;20199;-75
2022/06/09 00:54:02;;;;;;;9.77;8.60;;;;;;;17.60;100.00;62682.38;5098513;28;20650;-75
2022/06/09 00:56:32;;;;;;;12.73;9.77;;;;;;;17.64;100.00;62686.16;5097958;28;20227;-75
2022/06/09 00:58:59;;;;;;;12.07;9.83;;;;;;;17.55;100.00;62676.44;5098129;28;20195;-75
2022/06/09 01:01:28;;;;;;;13.03;10.80;;;;;;;17.56;100.00;62680.66;5101050;28;20204;-75
2022/06/09 01:04:01;;;;;;;15.70;10.47;;;;;;;17.61;100.00;62683.44;5100534;28;20304;-75
2022/06/09 01:06:31;;;;;;;14.90;11.70;;;;;;;17.76;100.00;62699.09;5098625;28;20588;-76
2022/06/09 01:09:03;;;;;;;14.53;11.50;;;;;;;17.67;100.00;62687.34;5098152;28;20661;-76
2022/06/09 01:11:30;;;;;;;16.80;11.07;;;;;;;17.41;100.00;62659.28;5098329;28;20211;-76
2022/06/09 01:13:59;;;;;;;16.13;12.83;;;;;;;17.75;100.00;62702.63;5080649;28;20668;-74
2022/06/09 01:16:37;;;;;;;16.70;11.60;;;;;;;17.54;100.00;62681.06;5084300;28;20250;-76
2022/06/09 01:19:24;;;;;;;16.17;11.67;;;;;;;17.69;100.00;62691.53;5097988;28;20282;-75
2022/06/09 01:22:33;;;;;;;16.07;12.10;;;;;;;17.76;100.00;62701.13;5097597;28;20278;-75
2022/06/09 01:25:27;;;;;;;15.97;11.43;;;;;;;17.73;100.00;62696.41;5098353;28;20246;-75
2022/06/09 01:28:13;;;;;;;15.40;11.83;;;;;;;17.71;100.00;62691.66;5079613;28;20218;-74
2022/06/09 01:30:49;;;;;;;15.57;11.03;;;;;;;17.77;100.00;62704.81;5097508;28;20214;-76
2022/06/09 01:33:25;;;;;;;10.90;9.70;;;;;;;17.81;100.00;62703.97;5094286;28;20203;-74
2022/06/09 01:36:00;;;;;;;13.60;10.23;;;;;;;17.82;100.00;62705.56;5098043;28;20238;-74
2022/06/09 01:38:27;;;;;;;13.87;11.10;;;;;;;17.47;100.00;62670.91;5079397;28;20613;-74
2022/06/09 01:40:54;;;;;;;13.33;10.40;;;;;;;17.47;100.00;62665.75;5098439;28;20590;-75
2022/06/09 01:43:22;;;;;;;15.07;10.53;;;;;;;17.54;100.00;62677.94;5097887;28;20269;-75
2022/06/09 01:46:00;;;;;;;15.67;11.63;;;;;;;17.57;100.00;62679.13;5097937;28;20249;-75
2022/06/09 01:48:29;;;;;;;18.03;11.50;;;;;;;17.13;100.00;62626.53;5097744;28;20203;-74
2022/06/09 01:50:59;;;;;;;13.67;11.17;;;;;;;17.44;100.00;62665.09;5097755;28;20284;-75
2022/06/09 01:53:35;;;;;;;15.60;11.67;;;;;;;17.36;100.00;62651.34;5095232;28;20208;-74
2022/06/09 01:56:07;;;;;;;15.60;11.73;;;;;;;17.18;100.00;62637.06;5094299;28;20215;-76
2022/06/09 01:58:39;;;;;;;19.00;12.00;;;;;;;17.20;100.00;62638.69;5094632;28;20200;-76
2022/06/09 02:01:10;;;;;;;16.63;11.77;;;;;;;17.13;100.00;62631.66;5094886;28;20199;-75
2022/06/09 02:03:41;;;;;;;14.17;11.87;;;;;;;17.23;100.00;62642.44;5095052;28;20687;-75
2022/06/09 02:06:11;;;;;;;11.07;8.07;;;;;;;16.64;100.00;62579.38;5094629;28;20283;-76
2022/06/09 02:08:38;;;;;;;8.83;6.23;;;;;;;17.13;100.00;62634.25;5094388;28;20208;-74
2022/06/09 02:11:08;;;;;;;7.80;6.77;;;;;;;17.18;100.00;62637.06;5094113;28;20206;-77
2022/06/09 02:13:39;;;;;;;7.87;5.97;;;;;;;17.20;100.00;62639.22;5094216;28;20665;-75
2022/06/09 02:16:13;;;;;;;6.20;5.20;;;;;;;17.14;100.00;62632.22;5094021;28;20237;-75
2022/06/09 02:18:42;;;;;;;7.83;5.77;;;;;;;17.15;100.00;62633.28;5094248;28;20662;-74
2022/06/09 02:21:13;;;;;;;7.50;5.63;;;;;;;17.23;100.00;62639.88;5080379;28;20705;-76
2022/06/09 02:23:41;;;;;;;9.37;5.40;;;;;;;17.13;100.00;62636.28;5094116;28;20199;-76
2022/06/09 02:26:08;;;;;;;6.37;5.53;;;;;;;17.10;100.00;62628.44;5094049;28;20203;-74
2022/06/09 02:28:36;;;;;;;8.43;5.93;;;;;;;16.87;100.00;62604.19;5093902;28;20211;-76
2022/06/09 02:31:03;;;;;;;10.93;5.67;;;;;;;17.07;100.00;62625.19;5093953;28;20207;-74
2022/06/09 02:33:31;;;;;;;10.80;5.67;;;;;;;17.00;100.00;62615.09;5093686;28;20207;-75
2022/06/09 02:35:58;;;;;;;10.83;5.50;;;;;;;16.98;100.00;62615.50;5093625;28;20232;-73
2022/06/09 02:38:25;;;;;;;8.90;5.00;;;;;;;15.98;100.00;62508.25;5075717;28;20199;-75
2022/06/09 02:40:54;;;;;;;7.17;5.10;;;;;;;16.75;100.00;62590.72;5093321;28;20199;-74
2022/06/09 02:43:21;;;;;;;6.10;4.77;;;;;;;17.03;100.00;62622.91;5093190;28;20259;-75
2022/06/09 02:45:48;;;;;;;7.73;5.20;;;;;;;17.00;100.00;62617.66;5093598;28;20199;-75
2022/06/09 02:48:16;;;;;;;12.77;4.93;;;;;;;17.02;100.00;62622.41;5093455;28;20199;-74
2022/06/09 02:50:46;;;;;;;9.73;5.03;;;;;;;16.99;100.00;62616.03;5093365;28;20207;-75
2022/06/09 02:53:13;;;;;;;7.30;5.40;;;;;;;17.03;100.00;62620.88;5093086;28;20621;-75
2022/06/09 02:55:41;;;;;;;7.43;5.37;;;;;;;17.08;100.00;62623.72;5075058;28;20207;-74
2022/06/09 02:58:09;;;;;;;6.90;5.93;;;;;;;16.78;100.00;62593.94;5093136;28;20193;-76
2022/06/09 03:00:37;;;;;;;11.33;8.03;;;;;;;16.44;100.00;62554.72;5093074;28;20204;-73
2022/06/09 03:03:08;;;;;;;11.60;9.37;;;;;;;17.09;100.00;62627.34;5093109;28;20662;-75
2022/06/09 03:05:37;;;;;;;11.33;9.77;;;;;;;17.19;100.00;62637.59;5092799;28;20282;-74
2022/06/09 03:08:07;;;;;;;14.03;9.33;;;;;;;17.10;100.00;62628.44;5092880;28;20649;-74
2022/06/09 03:10:34;;;;;;;10.63;9.53;;;;;;;17.09;100.00;62629.38;5093488;28;20629;-75
2022/06/09 03:13:01;;;;;;;20.93;9.27;;;;;;;17.10;100.00;62628.44;5093063;28;20207;-75
2022/06/09 03:15:28;;;;;;;13.87;9.00;;;;;;;17.23;100.00;62642.44;5092836;28;20219;-76
2022/06/09 03:17:54;;;;;;;14.43;8.90;;;;;;;17.14;100.00;62632.75;5092569;28;21433;-75
2022/06/09 03:20:24;;;;;;;10.57;8.77;;;;;;;17.38;100.00;62655.53;5092024;28;20662;-75
2022/06/09 03:22:54;;;;;;;11.50;8.57;;;;;;;17.03;100.00;62618.31;5079335;28;20587;-74
2022/06/09 03:25:24;;;;;;;12.00;8.57;;;;;;;17.21;100.00;62637.72;5093183;28;20244;-74
2022/06/09 03:27:53;;;;;;;13.63;8.20;;;;;;;16.85;100.00;62602.03;5092582;28;20236;-77
2022/06/09 03:30:20;;;;;;;9.83;8.10;;;;;;;17.14;100.00;62632.75;5092625;28;20199;-75
2022/06/09 03:32:48;;;;;;;10.47;8.07;;;;;;;16.57;100.00;62571.31;5092307;28;20211;-74
2022/06/09 03:35:18;;;;;;;12.10;8.17;;;;;;;17.13;100.00;62631.66;5092768;28;20238;-75
2022/06/09 03:37:45;;;;;;;14.77;8.37;;;;;;;16.46;100.00;62559.44;5092466;28;20231;-76
2022/06/09 03:40:15;;;;;;;11.87;8.50;;;;;;;17.01;100.00;62618.72;5092423;28;20195;-73
2022/06/09 03:42:44;;;;;;;10.80;8.07;;;;;;;17.46;100.00;62666.72;5093625;28;20613;-77
2022/06/09 03:45:12;;;;;;;10.33;8.63;;;;;;;17.17;100.00;62638.56;5093489;28;20191;-75
2022/06/09 03:47:39;;;;;;;13.97;10.27;;;;;;;17.16;100.00;62634.91;5092779;28;20203;-74
2022/06/09 03:50:08;;;;;;;16.60;10.80;;;;;;;17.64;100.00;62684.13;5092631;28;20195;-76
2022/06/09 03:52:35;;;;;;;15.90;11.87;;;;;;;17.56;100.00;62678.06;5092407;28;20206;-75
2022/06/09 03:55:03;;;;;;;16.17;11.97;;;;;;;17.66;100.00;62688.84;5092015;28;20698;-76
2022/06/09 03:57:30;;;;;;;15.57;12.60;;;;;;;17.84;100.00;62707.19;5092054;28;20223;-75
2022/06/09 03:59:59;;;;;;;20.47;12.90;;;;;;;17.78;100.00;62701.25;5092230;28;20223;-74
2022/06/09 04:02:26;;;;;;;15.23;12.70;;;;;;;17.44;100.00;62664.56;5092436;28;20215;-74
2022/06/09 04:04:53;;;;;;;16.40;12.00;;;;;;;17.91;100.00;62714.75;5092102;28;20237;-75
2022/06/09 04:07:20;;;;;;;19.03;12.33;;;;;;;17.95;100.00;62719.59;5092136;28;20234;-74
2022/06/09 04:09:48;;;;;;;16.37;12.83;;;;;;;18.07;100.00;62732.00;5091583;28;20239;-75
2022/06/09 04:12:15;;;;;;;17.03;12.20;;;;;;;17.88;100.00;62708.94;5091920;28;20212;-74
2022/06/09 04:14:42;;;;;;;14.63;11.20;;;;;;;17.90;100.00;62713.66;5091842;28;20208;-76
2022/06/09 04:17:12;;;;;;;22.53;10.73;;;;;;;17.35;100.00;62655.41;5091325;28;20227;-76
2022/06/09 04:19:39;;;;;;;13.47;9.67;;;;;;;17.89;100.00;62710.53;5092425;28;20195;-76
2022/06/09 04:22:07;;;;;;;11.97;9.30;;;;;;;17.77;100.00;62699.66;5092121;28;20208;-76
2022/06/09 04:24:34;;;;;;;13.40;8.73;;;;;;;17.76;100.00;62698.56;5091514;28;20203;-74
2022/06/09 04:27:01;;;;;;;12.70;9.27;;;;;;;18.07;100.00;62732.00;5092072;28;20215;-74
2022/06/09 04:29:28;;;;;;;15.87;10.67;;;;;;;17.93;100.00;62716.91;5091938;28;20203;-75
2022/06/09 04:31:55;;;;;;;16.90;10.53;;;;;;;18.07;100.00;62732.53;5091765;28;20233;-74
2022/06/09 04:34:24;;;;;;;16.97;11.03;;;;;;;18.12;100.00;62737.41;5091614;28;20219;-76
2022/06/09 04:36:52;;;;;;;17.83;11.93;;;;;;;18.23;100.00;62749.81;5091422;28;20231;-75
2022/06/09 04:39:19;;;;;;;12.90;10.13;;;;;;;18.14;100.00;62736.97;5091314;28;20195;-75
2022/06/09 04:41:47;;;;;;;13.40;8.60;;;;;;;18.09;100.00;62736.75;5091210;28;20203;-74
2022/06/09 04:44:15;;;;;;;13.67;9.23;;;;;;;18.21;100.00;62744.53;5091306;28;20678;-75
2022/06/09 04:46:43;;;;;;;11.40;8.87;;;;;;;17.43;100.00;62664.03;5091296;28;20211;-74
2022/06/09 04:49:11;;;;;;;12.33;8.33;;;;;;;18.38;100.00;62766.00;5091330;28;20203;-76
2022/06/09 04:51:39;;;;;;;9.60;7.83;;;;;;;18.49;100.00;62775.31;5091441;28;20670;-75
2022/06/09 04:54:07;;;;;;;12.83;8.37;;;;;;;17.98;100.00;62722.84;5091112;28;20693;-76
2022/06/09 04:56:36;;;;;;;13.77;10.33;;;;;;;18.85;100.00;62815.69;5089195;28;20223;-74
2022/06/09 04:59:05;;;;;;;10.80;8.37;;;;;;;18.89;100.00;62825.72;5079481;28;20202;-75
2022/06/09 05:01:32;;;;;;;12.47;10.43;;;;;;;18.89;100.00;62820.56;5091425;28;20200;-73
2022/06/09 05:04:00;;;;;;;13.57;9.93;;;;;;;19.14;100.00;62847.00;5091323;28;20200;-74
2022/06/09 05:06:29;;;;;;;13.90;11.50;;;;;;;19.26;100.00;62863.09;5091141;28;20204;-75
2022/06/09 05:08:58;;;;;;;13.37;11.03;;;;;;;19.32;100.00;62863.84;5090872;28;20317;-75
2022/06/09 05:11:26;;;;;;;11.80;9.90;;;;;;;19.42;100.00;62871.56;5091169;28;20204;-74
2022/06/09 05:13:54;;;;;;;13.00;10.07;;;;;;;19.41;100.00;62876.19;5091244;28;20204;-75
2022/06/09 05:16:21;;;;;;;13.73;9.80;;;;;;;19.66;100.00;62902.69;5091520;28;20218;-75
2022/06/09 05:18:49;;;;;;;14.40;10.03;;;;;;;19.82;100.00;62919.97;5077662;28;20203;-75
2022/06/09 05:21:16;;;;;;;13.00;9.83;;;;;;;19.58;100.00;62894.56;5091224;28;20291;-76
2022/06/09 05:23:43;;;;;;;11.93;9.60;;;;;;;20.18;100.00;62958.88;5090919;28;20759;-76
2022/06/09 05:26:14;;;;;;;13.43;10.30;;;;;;;20.62;100.00;63006.47;5091574;28;20253;-74
2022/06/09 05:28:41;;;;;;;26.40;10.77;;;;;;;20.82;100.00;63025.53;5092611;28;20200;-75
2022/06/09 05:31:08;;;;;;;23.13;9.53;;;;;;;21.05;100.00;63051.94;5095691;28;20203;-75
2022/06/09 05:33:37;;;;;;;16.17;10.20;;;;;;;21.10;100.00;63057.34;5094709;28;20204;-76
2022/06/09 05:36:05;;;;;;;14.07;10.07;;;;;;;20.86;100.00;63032.44;5094623;28;20694;-74
2022/06/09 05:46:49;;;;;;;12.80;10.83;;;;;;;21.00;100.00;63047.59;5095553;28;20336;-74
2022/06/09 05:49:18;;;;;;;14.87;9.60;;;;;;;21.14;100.00;63059.09;5094776;28;20204;-74
2022/06/09 05:51:47;;;;;;;11.37;8.17;;;;;;;20.97;100.00;63044.34;5094542;28;20265;-74
2022/06/09 05:54:15;;;;;;;11.03;9.80;;;;;;;20.64;100.00;63005.50;5094469;28;20197;-74
2022/06/09 05:56:43;;;;;;;11.27;9.20;;;;;;;20.79;100.00;63022.28;5094470;28;20200;-75
2022/06/09 05:59:10;;;;;;;12.43;9.57;;;;;;;20.54;100.00;62995.25;5094801;28;20204;-74
2022/06/09 06:01:38;;;;;;;11.73;10.07;;;;;;;20.69;100.00;63008.88;5094662;28;20200;-75
2022/06/09 06:04:06;;;;;;;14.33;10.10;;;;;;;20.28;100.00;62964.53;5094523;28;20215;-75
2022/06/09 06:06:34;;;;;;;11.40;9.10;;;;;;;20.51;100.00;62994.56;5094195;28;20215;-74
2022/06/09 06:09:01;;;;;;;11.33;8.00;;;;;;;21.02;100.00;63049.22;5094179;28;20200;-75
2022/06/09 06:11:28;;;;;;;13.27;8.60;;;;;;;21.37;100.00;63086.56;5093961;28;20210;-75
2022/06/09 06:13:57;;;;;;;12.77;7.73;;;;;;;21.50;100.00;63098.59;5094068;28;20256;-74
2022/06/09 06:16:25;;;;;;;11.40;7.23;;;;;;;20.98;100.00;63045.44;5093925;28;20210;-76
2022/06/09 06:18:52;;;;;;;9.57;6.93;;;;;;;20.30;100.00;62973.91;5093712;28;20717;-75
2022/06/09 06:21:20;;;;;;;12.00;8.60;;;;;;;20.24;100.00;62965.38;5093689;28;20207;-74
2022/06/09 06:23:47;;;;;;;10.50;7.97;;;;;;;20.30;100.00;62971.88;5093570;28;20207;-75
2022/06/09 06:26:15;;;;;;;13.60;9.20;;;;;;;20.35;100.00;62972.09;5093848;28;20622;-75
2022/06/09 06:28:42;;;;;;;15.43;9.33;;;;;;;20.98;100.00;63045.44;5093480;28;20278;-75
2022/06/09 06:31:10;;;;;;;11.83;8.57;;;;;;;20.95;100.00;63041.63;5094224;28;20265;-76
2022/06/09 06:33:37;;;;;;;15.27;9.23;;;;;;;21.13;100.00;63060.59;5093505;28;20269;-74
2022/06/09 06:36:05;;;;;;;18.40;11.97;;;;;;;20.97;100.00;63041.19;5093893;28;20684;-74
2022/06/09 06:38:32;;;;;;;15.50;10.57;;;;;;;21.36;100.00;63085.47;5093203;28;20250;-74
2022/06/09 06:41:00;;;;;;;12.37;9.80;;;;;;;21.70;100.00;63119.69;5093418;28;20583;-74
2022/06/09 06:43:27;;;;;;;20.53;10.77;;;;;;;21.79;100.00;63126.84;5093423;28;20227;-76
2022/06/09 06:45:54;;;;;;;15.07;10.17;;;;;;;22.00;100.00;63154.78;5093635;28;20203;-73
2022/06/09 06:48:23;;;;;;;12.80;10.10;;;;;;;21.83;100.00;63136.41;5093303;28;20207;-73
2022/06/09 06:50:50;;;;;;;17.63;9.80;;;;;;;22.52;100.00;63210.56;5093072;28;20235;-75
2022/06/09 06:53:18;;;;;;;16.13;10.07;;;;;;;22.93;100.00;63249.28;5093064;28;20239;-74
2022/06/09 06:55:45;;;;;;;11.87;9.07;;;;;;;23.30;100.00;63294.59;5092974;28;20218;-74
2022/06/09 06:58:12;;;;;;;13.43;8.93;;;;;;;23.32;100.00;63296.78;5093250;28;20250;-75
2022/06/09 07:00:40;;;;;;;12.47;9.23;;;;;;;23.30;100.00;63294.59;5092993;28;20207;-74
2022/06/09 07:03:08;;;;;;;15.00;8.80;;;;;;;23.89;100.00;63358.59;5092693;28;20257;-74
2022/06/09 07:05:37;;;;;;;14.07;8.40;;;;;;;24.01;100.00;63371.63;5092675;28;20214;-73
2022/06/09 07:08:04;;;;;;;9.80;7.53;;;;;;;24.09;100.00;63380.31;5092659;28;20210;-75
2022/06/09 07:10:32;;;;;;;10.90;7.80;;;;;;;23.99;100.00;63369.44;5093101;28;20196;-75
2022/06/09 07:13:00;;;;;;;10.03;7.20;;;;;;;24.41;100.00;63408.75;5092382;28;20223;-75
2022/06/09 07:15:28;;;;;;;9.87;7.30;;;;;;;24.14;100.00;63385.75;5092575;28;20211;-75
2022/06/09 07:17:57;;;;;;;9.90;7.03;;;;;;;24.30;100.00;63397.91;5091791;28;20234;-76
2022/06/09 07:20:25;;;;;;;12.70;8.20;;;;;;;23.97;100.00;63362.06;5092583;28;20226;-74
2022/06/09 07:22:55;;;;;;;13.83;8.07;;;;;;;24.29;100.00;63402.03;5092622;28;20199;-75
2022/06/09 07:25:24;;;;;;;17.30;9.53;;;;;;;24.25;100.00;63402.91;5092815;28;20549;-74
2022/06/09 07:27:53;;;;;;;10.33;7.43;;;;;;;24.15;100.00;63386.84;5092294;28;20600;-75
2022/06/09 07:30:22;;;;;;;14.30;7.00;;;;;;;24.46;100.00;63416.78;5092383;28;20204;-74
2022/06/09 07:32:51;;;;;;;9.60;7.93;;;;;;;24.54;100.00;63426.00;5092326;28;20199;-74
2022/06/09 07:35:21;;;;;;;9.70;7.90;;;;;;;24.01;100.00;63371.63;5092157;28;20284;-75
2022/06/09 07:37:48;;;;;;;10.60;7.53;;;;;;;24.60;100.00;63434.59;5091942;28;20227;-75
2022/06/09 07:40:18;;;;;;;14.30;8.50;;;;;;;24.14;100.00;63385.75;5092392;28;20208;-75
2022/06/09 07:42:45;;;;;;;23.87;9.30;;;;;;;24.58;100.00;63427.19;5091701;28;20230;-75
2022/06/09 07:45:13;;;;;;;12.43;8.40;;;;;;;24.65;100.00;63434.81;5092335;28;20200;-74
2022/06/09 07:47:40;;;;;;;15.07;8.53;;;;;;;24.57;100.00;63431.34;5092348;28;20657;-74
2022/06/09 07:50:09;;;;;;;11.13;8.57;;;;;;;24.45;100.00;63413.09;5092544;28;20211;-76
2022/06/09 07:52:36;;;;;;;12.73;8.03;;;;;;;24.24;100.00;63396.59;5091486;28;20203;-74
2022/06/09 07:55:03;;;;;;;15.53;8.47;;;;;;;23.95;100.00;63362.50;5091881;28;20529;-74
2022/06/09 07:57:31;;;;;;;11.27;7.73;;;;;;;24.59;100.00;63430.91;5091703;28;20604;-73
2022/06/09 07:59:59;;;;;;;15.07;7.93;;;;;;;24.86;100.00;63463.38;5091721;28;20627;-74
2022/06/09 08:02:26;;;;;;;14.23;7.67;;;;;;;24.94;100.00;63466.31;5091887;28;20537;-74
2022/06/09 08:04:53;;;;;;;12.60;7.87;;;;;;;24.56;100.00;63435.44;5091631;28;20628;-74
2022/06/09 08:07:21;;;;;;;11.00;7.67;;;;;;;25.15;100.00;63489.63;5091674;28;20292;-75
2022/06/09 08:09:48;;;;;;;9.33;7.87;;;;;;;24.92;100.00;63469.88;5091410;28;20279;-75
2022/06/09 08:12:15;;;;;;;11.23;7.77;;;;;;;24.65;100.00;63440.53;5091826;28;20203;-74
2022/06/09 08:14:43;;;;;;;19.47;8.37;;;;;;;24.13;100.00;63384.66;5091895;28;20249;-74
2022/06/09 08:17:12;;;;;;;11.37;8.50;;;;;;;23.95;100.00;63362.50;5091807;28;20196;-74
2022/06/09 08:19:39;;;;;;;58.43;12.00;;;;;;;24.23;100.00;63394.97;5091627;28;20212;-74
2022/06/09 08:22:06;;;;;;;13.43;9.17;;;;;;;23.73;100.00;63341.25;5091189;28;20678;-74
2022/06/09 08:24:34;;;;;;;10.00;8.37;;;;;;;24.15;100.00;63381.63;5091268;28;20206;-74
2022/06/09 08:27:01;;;;;;;17.67;8.67;;;;;;;24.42;100.00;63413.00;5091510;28;20626;-75
2022/06/09 08:29:30;;;;;;;15.43;10.20;;;;;;;23.90;100.00;63354.50;5091199;28;20200;-74
2022/06/09 08:31:58;;;;;;;11.57;8.70;;;;;;;24.33;100.00;63401.16;5091283;28;20385;-74
2022/06/09 08:34:25;;;;;;;16.77;8.40;;;;;;;24.83;100.00;63454.38;5090975;28;20700;-75
2022/06/09 08:36:54;;;;;;;15.70;8.47;;;;;;;25.03;100.00;63481.81;5091099;28;20290;-75
2022/06/09 08:39:21;;;;;;;17.87;8.83;;;;;;;24.99;100.00;63476.97;5091032;28;20717;-75
2022/06/09 08:41:59;;;;;;;13.27;8.17;;;;;;;24.42;100.00;63409.84;5090652;28;20218;-74
2022/06/09 08:44:36;;;;;;;12.47;8.67;;;;;;;24.97;100.00;63474.78;5091272;28;20199;-74
2022/06/09 08:47:13;;;;;;;22.33;9.50;;;;;;;25.34;100.00;63514.94;5091034;28;20223;-75
2022/06/09 08:49:56;;;;;;;18.50;12.83;;;;;;;25.74;100.00;63558.44;5091000;28;20598;-75
2022/06/09 08:52:37;;;;;;;13.83;7.60;;;;;;;25.90;100.00;63570.59;5091101;28;20208;-74
2022/06/09 08:55:17;;;;;;;13.57;8.27;;;;;;;25.85;100.00;63565.16;5091858;28;20221;-74
2022/06/09 08:57:45;;;;;;;16.60;8.73;;;;;;;25.90;100.00;63570.59;5080901;28;20262;-73
2022/06/09 09:00:14;;;;;;;9.73;7.23;;;;;;;25.91;100.00;63576.38;5088359;28;20224;-74
2022/06/09 09:02:46;;;;;;;12.80;7.07;;;;;;;26.38;100.00;63624.31;5092431;28;20648;-73
2022/06/09 09:05:20;;;;;;;23.10;7.93;;;;;;;26.58;100.00;63646.06;5095520;28;20646;-75
2022/06/09 09:07:49;;;;;;;11.07;7.70;;;;;;;26.67;100.00;63655.84;5095147;28;20203;-75
2022/06/09 09:10:22;;;;;;;15.60;8.00;;;;;;;26.31;100.00;63619.31;5094948;28;20211;-74
2022/06/09 09:13:05;;;;;;;20.10;7.00;;;;;;;26.70;100.00;63656.50;5094931;28;20263;-75
2022/06/09 09:15:39;;;;;;;87.50;10.80;;;;;;;26.63;100.00;63648.88;5095117;28;20207;-75
2022/06/09 09:18:35;;;;;;;26.97;6.77;;;;;;;26.96;100.00;63690.03;5095076;28;20231;-74
2022/06/09 09:21:22;;;;;;;20.10;7.40;;;;;;;27.56;100.00;63755.31;5093736;28;20658;-74
2022/06/09 09:23:59;;;;;;;18.13;6.57;;;;;;;27.93;100.00;63794.50;5095115;28;20212;-74
2022/06/09 09:26:49;;;;;;;12.43;5.47;;;;;;;27.09;100.00;63703.59;5095284;28;20203;-74
2022/06/09 09:29:24;;;;;;;8.77;5.23;;;;;;;27.54;100.00;63750.53;5094724;28;20203;-74
2022/06/09 09:31:55;;;;;;;10.40;6.27;;;;;;;28.03;100.00;63805.41;5094826;28;20252;-75
2022/06/09 09:34:29;;;;;;;6.93;4.47;;;;;;;27.13;100.00;63705.88;5094435;28;20257;-74
2022/06/09 09:37:02;;;;;;;8.50;4.90;;;;;;;27.22;100.00;63712.53;5094349;28;20213;-75
2022/06/09 09:39:40;;;;;;;15.10;6.00;;;;;;;26.96;100.00;63689.47;5094098;28;20223;-74
2022/06/09 09:42:14;;;;;;;13.07;6.10;;;;;;;26.85;100.00;63672.81;5094259;28;20227;-74
2022/06/09 09:44:41;;;;;;;8.63;5.77;;;;;;;27.55;100.00;63754.22;5094262;28;20192;-75
2022/06/09 09:47:09;;;;;;;8.23;5.17;;;;;;;27.99;100.00;63801.06;5095012;28;20202;-75
2022/06/09 09:49:43;;;;;;;14.90;5.53;;;;;;;28.07;100.00;63809.75;5094446;28;20204;-74
2022/06/09 09:52:36;;;;;;;14.00;5.30;;;;;;;27.71;100.00;63770.56;5094220;28;20594;-76
2022/06/09 09:55:04;;;;;;;7.17;4.77;;;;;;;28.18;100.00;63826.97;5080713;28;20195;-75
2022/06/09 09:57:33;;;;;;;11.67;5.77;;;;;;;28.34;100.00;63844.38;5094003;28;20203;-75
2022/06/09 10:00:01;;;;;;;11.10;5.60;;;;;;;28.27;100.00;63828.91;5094185;28;20275;-75
2022/06/09 10:14:15;;;;;;;8.13;5.67;;;;;;;27.36;100.00;63730.38;5093473;28;20261;-75
2022/06/09 10:16:50;;;;;;;8.87;5.60;;;;;;;27.77;100.00;63777.63;5094231;28;20203;-74
2022/06/09 10:19:22;;;;;;;8.53;5.27;;;;;;;27.67;100.00;63768.81;5093830;28;20226;-75
2022/06/09 10:21:53;;;;;;;11.17;4.97;;;;;;;28.15;100.00;63819.00;5094017;28;20560;-75
2022/06/09 10:24:25;;;;;;;8.90;5.10;;;;;;;28.28;100.00;63843.66;5093815;28;20614;-74
2022/06/09 10:26:56;;;;;;;5.20;4.70;;;;;;;28.73;100.00;63881.66;5093870;28;20605;-76
2022/06/09 10:29:27;;;;;;;7.80;5.03;;;;;;;28.94;100.00;63903.97;5093874;28;20211;-73
2022/06/09 10:32:00;;;;;;;8.77;4.60;;;;;;;28.65;100.00;63875.56;5094063;28;20291;-74
2022/06/09 10:34:38;;;;;;;5.90;4.27;;;;;;;29.29;100.00;63941.59;5093575;28;20209;-74
2022/06/09 10:37:18;;;;;;;7.93;4.70;;;;;;;29.45;100.00;63959.56;5094097;28;20199;-74
2022/06/09 10:39:53;;;;;;;10.53;4.37;;;;;;;29.55;100.00;63972.56;5093811;28;20705;-76
2022/06/09 10:42:30;;;;;;;9.73;4.80;;;;;;;29.69;100.00;63983.09;5093285;28;20771;-75
2022/06/09 10:45:16;;;;;;;7.73;4.40;;;;;;;30.00;100.00;64013.75;5082784;28;20215;-74
2022/06/09 10:56:22;;;;;;;4.23;3.83;;;;;;;30.26;100.00;64047.38;5093203;28;20207;-75
2022/06/09 10:58:54;;;;;;;7.70;3.80;;;;;;;30.32;100.00;64053.94;5093091;28;20229;-75
2022/06/09 11:01:28;;;;;;;4.87;4.27;;;;;;;29.78;100.00;63992.94;5093479;28;20299;-75
2022/06/09 11:03:55;;;;;;;7.27;4.30;;;;;;;29.50;100.00;63964.50;5093259;28;20276;-73
2022/06/09 11:06:37;;;;;;;6.80;4.23;;;;;;;28.84;100.00;63893.63;5092922;28;20203;-73
2022/06/09 11:09:20;;;;;;;8.97;4.80;;;;;;;28.59;100.00;63866.41;5092867;28;20243;-74
2022/06/09 11:11:53;;;;;;;10.87;4.57;;;;;;;27.98;100.00;63799.94;5081261;28;20200;-75
2022/06/09 11:14:42;;;;;;;8.63;3.90;;;;;;;27.39;100.00;63736.25;5092770;28;20276;-76
2022/06/09 11:17:26;;;;;;;10.70;4.47;;;;;;;26.80;100.00;63677.31;5089241;28;20211;-75
2022/06/09 11:20:11;;;;;;;6.40;4.00;;;;;;;28.12;100.00;63815.19;5092566;28;20234;-74
2022/06/09 11:22:48;;;;;;;5.87;3.80;;;;;;;28.59;100.00;63861.16;5092859;28;20203;-77
2022/06/09 11:25:36;;;;;;;8.27;3.87;;;;;;;29.53;100.00;63965.13;5092502;28;20199;-74
2022/06/09 11:28:17;;;;;;;7.37;3.77;;;;;;;29.52;100.00;63967.19;5092643;28;20195;-75
2022/06/09 11:31:05;;;;;;;6.73;3.30;;;;;;;30.23;100.00;64044.09;5092298;28;20654;-74
2022/06/09 11:33:55;;;;;;;5.93;3.20;;;;;;;30.26;100.00;64044.19;5092618;28;20643;-74
2022/06/09 11:36:27;;;;;;;3.93;3.50;;;;;;;29.89;100.00;64009.63;5092722;28;20231;-75
2022/06/09 11:39:06;;;;;;;4.90;3.63;;;;;;;29.40;100.00;63954.13;5092262;28;20223;-74
2022/06/09 11:41:54;;;;;;;8.90;3.70;;;;;;;29.68;100.00;63978.84;5092698;28;20282;-73
2022/06/09 11:44:26;;;;;;;6.83;3.47;;;;;;;29.48;100.00;63962.31;5092495;28;20206;-74
2022/06/09 11:46:57;;;;;;;5.33;3.47;;;;;;;29.42;100.00;63950.50;5092276;28;20203;-74
2022/06/09 11:49:30;;;;;;;6.27;3.53;;;;;;;29.58;100.00;63973.22;5092830;28;20196;-74
2022/06/09 11:52:00;;;;;;;7.57;3.73;;;;;;;29.65;100.00;63980.81;5092201;28;20712;-74
2022/06/09 11:54:42;;;;;;;6.80;3.93;;;;;;;30.35;100.00;64051.94;5092450;28;20210;-75
2022/06/09 11:57:25;;;;;;;6.97;3.53;;;;;;;29.29;100.00;63936.34;5092171;28;20207;-75
2022/06/09 11:59:55;;;;;;;5.97;3.00;;;;;;;30.15;100.00;64034.81;5080665;28;20230;-75
2022/06/09 12:02:53;;;;;;;6.97;3.53;;;;;;;30.40;100.00;64060.03;5092353;28;20197;-74